sensor_id;sensor_type;location;lat;lon;timestamp;P1;durP1;ratioP1;P2;durP2;ratioP2
75837;SDS011;64480;52.040;113.502;2023-07-13T00:01:07;14.52;;;7.65;;
75837;SDS011;64480;52.040;113.502;2023-07-13T00:04:10;12.27;;;7.85;;
75837;SDS011;64480;52.040;113.502;2023-07-13T00:07:14;15.25;;;9.13;;
75837;SDS011;64480;52.040;113.502;2023-07-13T00:10:17;14.32;;;7.75;;
75837;SDS011;64480;52.040;113.502;2023-07-13T00:13:21;11.30;;;7.65;;
75837;SDS011;64480;52.040;113.502;2023-07-13T00:16:25;12.80;;;6.57;;
75837;SDS011;64480;52.040;113.502;2023-07-13T00:19:28;15.70;;;7.45;;
75837;SDS011;64480;52.040;113.502;2023-07-13T00:22:32;14.48;;;8.13;;
75837;SDS011;64480;52.040;113.502;2023-07-13T00:25:35;12.45;;;7.10;;
75837;SDS011;64480;52.040;113.502;2023-07-13T00:28:39;15.48;;;7.60;;
75837;SDS011;64480;52.040;113.502;2023-07-13T00:31:44;17.10;;;8.43;;
75837;SDS011;64480;52.040;113.502;2023-07-13T00:34:48;13.73;;;6.68;;
75837;SDS011;64480;52.040;113.502;2023-07-13T00:37:52;13.57;;;7.68;;
75837;SDS011;64480;52.040;113.502;2023-07-13T00:40:57;13.68;;;8.00;;
75837;SDS011;64480;52.040;113.502;2023-07-13T00:44:01;11.18;;;6.97;;
75837;SDS011;64480;52.040;113.502;2023-07-13T00:47:06;14.50;;;8.25;;
75837;SDS011;64480;52.040;113.502;2023-07-13T00:50:12;10.10;;;6.88;;
75837;SDS011;64480;52.040;113.502;2023-07-13T00:53:19;16.60;;;7.10;;
75837;SDS011;64480;52.040;113.502;2023-07-13T00:56:23;11.25;;;7.05;;
75837;SDS011;64480;52.040;113.502;2023-07-13T00:59:27;11.35;;;7.03;;
75837;SDS011;64480;52.040;113.502;2023-07-13T01:02:31;10.23;;;6.10;;
75837;SDS011;64480;52.040;113.502;2023-07-13T01:05:35;10.25;;;6.95;;
75837;SDS011;64480;52.040;113.502;2023-07-13T01:08:39;12.45;;;6.88;;
75837;SDS011;64480;52.040;113.502;2023-07-13T01:11:43;20.20;;;8.52;;
75837;SDS011;64480;52.040;113.502;2023-07-13T01:14:47;12.93;;;7.32;;
75837;SDS011;64480;52.040;113.502;2023-07-13T01:17:52;10.88;;;6.40;;
75837;SDS011;64480;52.040;113.502;2023-07-13T01:20:59;8.40;;;6.03;;
75837;SDS011;64480;52.040;113.502;2023-07-13T01:24:04;9.73;;;5.93;;
75837;SDS011;64480;52.040;113.502;2023-07-13T01:27:08;8.68;;;5.80;;
75837;SDS011;64480;52.040;113.502;2023-07-13T01:30:14;12.10;;;6.25;;
75837;SDS011;64480;52.040;113.502;2023-07-13T01:33:17;14.02;;;7.95;;
75837;SDS011;64480;52.040;113.502;2023-07-13T01:36:21;13.07;;;6.35;;
75837;SDS011;64480;52.040;113.502;2023-07-13T01:39:24;10.60;;;5.60;;
75837;SDS011;64480;52.040;113.502;2023-07-13T01:42:28;10.85;;;6.00;;
75837;SDS011;64480;52.040;113.502;2023-07-13T01:45:32;8.48;;;5.28;;
75837;SDS011;64480;52.040;113.502;2023-07-13T01:48:36;12.40;;;6.93;;
75837;SDS011;64480;52.040;113.502;2023-07-13T01:51:40;11.55;;;6.00;;
75837;SDS011;64480;52.040;113.502;2023-07-13T01:54:45;11.75;;;6.43;;
75837;SDS011;64480;52.040;113.502;2023-07-13T02:00:54;15.88;;;6.07;;
75837;SDS011;64480;52.040;113.502;2023-07-13T02:03:58;11.98;;;6.55;;
75837;SDS011;64480;52.040;113.502;2023-07-13T02:07:04;10.15;;;6.35;;
75837;SDS011;64480;52.040;113.502;2023-07-13T02:10:08;11.00;;;6.13;;
75837;SDS011;64480;52.040;113.502;2023-07-13T02:13:13;10.10;;;6.63;;
75837;SDS011;64480;52.040;113.502;2023-07-13T02:16:17;7.45;;;5.93;;
75837;SDS011;64480;52.040;113.502;2023-07-13T02:19:21;9.07;;;6.43;;
75837;SDS011;64480;52.040;113.502;2023-07-13T02:22:24;10.80;;;6.75;;
75837;SDS011;64480;52.040;113.502;2023-07-13T02:25:29;7.38;;;5.95;;
75837;SDS011;64480;52.040;113.502;2023-07-13T02:28:33;9.27;;;5.88;;
75837;SDS011;64480;52.040;113.502;2023-07-13T02:31:36;12.07;;;6.15;;
75837;SDS011;64480;52.040;113.502;2023-07-13T02:34:40;7.55;;;6.43;;
75837;SDS011;64480;52.040;113.502;2023-07-13T02:37:44;10.23;;;6.40;;
75837;SDS011;64480;52.040;113.502;2023-07-13T02:40:48;10.98;;;5.90;;
75837;SDS011;64480;52.040;113.502;2023-07-13T02:43:54;11.05;;;8.13;;
75837;SDS011;64480;52.040;113.502;2023-07-13T02:47:06;9.63;;;6.13;;
75837;SDS011;64480;52.040;113.502;2023-07-13T02:50:09;8.90;;;5.68;;
75837;SDS011;64480;52.040;113.502;2023-07-13T02:53:13;7.28;;;5.45;;
75837;SDS011;64480;52.040;113.502;2023-07-13T02:56:17;8.70;;;5.72;;
75837;SDS011;64480;52.040;113.502;2023-07-13T02:59:25;8.98;;;5.45;;
75837;SDS011;64480;52.040;113.502;2023-07-13T03:02:29;7.18;;;5.70;;
75837;SDS011;64480;52.040;113.502;2023-07-13T03:05:34;12.43;;;5.07;;
75837;SDS011;64480;52.040;113.502;2023-07-13T03:08:38;14.77;;;7.90;;
75837;SDS011;64480;52.040;113.502;2023-07-13T03:11:42;8.80;;;5.57;;
75837;SDS011;64480;52.040;113.502;2023-07-13T03:15:00;7.22;;;4.95;;
75837;SDS011;64480;52.040;113.502;2023-07-13T03:18:04;9.52;;;5.93;;
75837;SDS011;64480;52.040;113.502;2023-07-13T03:21:08;6.22;;;4.97;;
75837;SDS011;64480;52.040;113.502;2023-07-13T03:24:13;8.27;;;5.80;;
75837;SDS011;64480;52.040;113.502;2023-07-13T03:27:18;6.82;;;5.38;;
75837;SDS011;64480;52.040;113.502;2023-07-13T03:30:23;9.82;;;5.28;;
75837;SDS011;64480;52.040;113.502;2023-07-13T03:33:27;10.10;;;5.25;;
75837;SDS011;64480;52.040;113.502;2023-07-13T03:36:31;5.80;;;4.85;;
75837;SDS011;64480;52.040;113.502;2023-07-13T03:39:42;8.70;;;5.53;;
75837;SDS011;64480;52.040;113.502;2023-07-13T03:42:49;7.25;;;5.45;;
75837;SDS011;64480;52.040;113.502;2023-07-13T03:45:53;6.57;;;5.05;;
75837;SDS011;64480;52.040;113.502;2023-07-13T03:48:57;9.90;;;7.03;;
75837;SDS011;64480;52.040;113.502;2023-07-13T03:52:00;8.13;;;5.85;;
75837;SDS011;64480;52.040;113.502;2023-07-13T03:55:04;6.22;;;4.45;;
75837;SDS011;64480;52.040;113.502;2023-07-13T04:01:48;5.18;;;4.30;;
75837;SDS011;64480;52.040;113.502;2023-07-13T04:04:53;5.68;;;4.28;;
75837;SDS011;64480;52.040;113.502;2023-07-13T04:07:58;10.07;;;5.07;;
75837;SDS011;64480;52.040;113.502;2023-07-13T04:11:02;8.02;;;4.70;;
75837;SDS011;64480;52.040;113.502;2023-07-13T04:14:07;5.00;;;3.97;;
75837;SDS011;64480;52.040;113.502;2023-07-13T04:17:10;7.43;;;4.45;;
75837;SDS011;64480;52.040;113.502;2023-07-13T04:20:14;6.70;;;4.57;;
75837;SDS011;64480;52.040;113.502;2023-07-13T04:23:18;7.28;;;5.10;;
75837;SDS011;64480;52.040;113.502;2023-07-13T04:26:21;5.72;;;4.60;;
75837;SDS011;64480;52.040;113.502;2023-07-13T04:29:26;6.85;;;4.68;;
75837;SDS011;64480;52.040;113.502;2023-07-13T04:32:29;6.65;;;4.30;;
75837;SDS011;64480;52.040;113.502;2023-07-13T04:35:33;8.48;;;4.93;;
75837;SDS011;64480;52.040;113.502;2023-07-13T04:38:40;8.68;;;4.57;;
75837;SDS011;64480;52.040;113.502;2023-07-13T04:41:44;6.45;;;4.00;;
75837;SDS011;64480;52.040;113.502;2023-07-13T04:44:49;5.53;;;4.55;;
75837;SDS011;64480;52.040;113.502;2023-07-13T04:47:56;6.00;;;3.60;;
75837;SDS011;64480;52.040;113.502;2023-07-13T04:51:00;7.90;;;4.65;;
75837;SDS011;64480;52.040;113.502;2023-07-13T04:54:05;6.28;;;3.88;;
75837;SDS011;64480;52.040;113.502;2023-07-13T04:57:17;5.10;;;4.10;;
75837;SDS011;64480;52.040;113.502;2023-07-13T05:00:24;6.57;;;4.57;;
75837;SDS011;64480;52.040;113.502;2023-07-13T05:03:28;9.07;;;4.28;;
75837;SDS011;64480;52.040;113.502;2023-07-13T05:06:34;7.63;;;4.40;;
75837;SDS011;64480;52.040;113.502;2023-07-13T05:09:41;5.72;;;4.45;;
75837;SDS011;64480;52.040;113.502;2023-07-13T05:12:44;6.82;;;4.40;;
75837;SDS011;64480;52.040;113.502;2023-07-13T05:15:55;6.90;;;4.43;;
75837;SDS011;64480;52.040;113.502;2023-07-13T05:19:02;7.50;;;4.90;;
75837;SDS011;64480;52.040;113.502;2023-07-13T05:22:07;6.40;;;4.28;;
75837;SDS011;64480;52.040;113.502;2023-07-13T05:25:10;5.82;;;4.53;;
75837;SDS011;64480;52.040;113.502;2023-07-13T05:28:14;9.10;;;4.93;;
75837;SDS011;64480;52.040;113.502;2023-07-13T05:31:18;8.35;;;5.10;;
75837;SDS011;64480;52.040;113.502;2023-07-13T05:34:21;7.13;;;4.18;;
75837;SDS011;64480;52.040;113.502;2023-07-13T05:37:25;7.78;;;4.43;;
75837;SDS011;64480;52.040;113.502;2023-07-13T05:40:29;8.82;;;4.68;;
75837;SDS011;64480;52.040;113.502;2023-07-13T05:43:32;7.30;;;4.40;;
75837;SDS011;64480;52.040;113.502;2023-07-13T05:46:36;7.28;;;4.57;;
75837;SDS011;64480;52.040;113.502;2023-07-13T05:49:40;5.45;;;4.10;;
75837;SDS011;64480;52.040;113.502;2023-07-13T05:52:43;5.63;;;4.20;;
75837;SDS011;64480;52.040;113.502;2023-07-13T05:55:47;7.00;;;4.55;;
75837;SDS011;64480;52.040;113.502;2023-07-13T05:58:52;6.57;;;4.55;;
75837;SDS011;64480;52.040;113.502;2023-07-13T06:01:56;6.88;;;4.50;;
75837;SDS011;64480;52.040;113.502;2023-07-13T06:04:59;6.05;;;4.70;;
75837;SDS011;64480;52.040;113.502;2023-07-13T06:08:02;6.93;;;4.65;;
75837;SDS011;64480;52.040;113.502;2023-07-13T06:11:07;7.55;;;4.25;;
75837;SDS011;64480;52.040;113.502;2023-07-13T06:14:15;6.35;;;4.95;;
75837;SDS011;64480;52.040;113.502;2023-07-13T06:17:21;8.20;;;4.70;;
75837;SDS011;64480;52.040;113.502;2023-07-13T06:20:24;9.07;;;4.65;;
75837;SDS011;64480;52.040;113.502;2023-07-13T06:23:28;6.57;;;3.90;;
75837;SDS011;64480;52.040;113.502;2023-07-13T06:26:31;3.97;;;3.30;;
75837;SDS011;64480;52.040;113.502;2023-07-13T06:29:34;4.95;;;3.75;;
75837;SDS011;64480;52.040;113.502;2023-07-13T06:32:38;6.05;;;3.40;;
75837;SDS011;64480;52.040;113.502;2023-07-13T06:35:42;9.00;;;3.70;;
75837;SDS011;64480;52.040;113.502;2023-07-13T06:38:46;7.03;;;3.40;;
75837;SDS011;64480;52.040;113.502;2023-07-13T06:41:49;3.53;;;2.65;;
75837;SDS011;64480;52.040;113.502;2023-07-13T06:44:53;4.50;;;2.63;;
75837;SDS011;64480;52.040;113.502;2023-07-13T06:47:56;6.78;;;2.72;;
75837;SDS011;64480;52.040;113.502;2023-07-13T06:50:59;4.95;;;2.63;;
75837;SDS011;64480;52.040;113.502;2023-07-13T06:54:05;5.15;;;2.72;;
75837;SDS011;64480;52.040;113.502;2023-07-13T06:57:08;3.40;;;1.95;;
75837;SDS011;64480;52.040;113.502;2023-07-13T07:00:15;4.10;;;2.17;;
75837;SDS011;64480;52.040;113.502;2023-07-13T07:03:19;4.07;;;1.88;;
75837;SDS011;64480;52.040;113.502;2023-07-13T07:06:23;3.72;;;1.90;;
75837;SDS011;64480;52.040;113.502;2023-07-13T07:09:26;3.17;;;1.50;;
75837;SDS011;64480;52.040;113.502;2023-07-13T07:12:32;12.88;;;1.77;;
75837;SDS011;64480;52.040;113.502;2023-07-13T07:15:35;4.13;;;0.90;;
75837;SDS011;64480;52.040;113.502;2023-07-13T07:18:39;3.03;;;1.15;;
75837;SDS011;64480;52.040;113.502;2023-07-13T07:21:42;3.25;;;1.30;;
75837;SDS011;64480;52.040;113.502;2023-07-13T07:24:45;4.47;;;1.50;;
75837;SDS011;64480;52.040;113.502;2023-07-13T07:27:49;3.95;;;1.35;;
75837;SDS011;64480;52.040;113.502;2023-07-13T07:30:58;2.42;;;1.40;;
75837;SDS011;64480;52.040;113.502;2023-07-13T07:34:05;3.13;;;1.45;;
75837;SDS011;64480;52.040;113.502;2023-07-13T07:37:12;4.97;;;1.63;;
75837;SDS011;64480;52.040;113.502;2023-07-13T07:40:19;1.88;;;1.20;;
75837;SDS011;64480;52.040;113.502;2023-07-13T07:43:25;3.45;;;1.13;;
75837;SDS011;64480;52.040;113.502;2023-07-13T07:46:29;6.03;;;0.93;;
75837;SDS011;64480;52.040;113.502;2023-07-13T07:49:33;2.03;;;1.10;;
75837;SDS011;64480;52.040;113.502;2023-07-13T07:52:36;1.65;;;0.90;;
75837;SDS011;64480;52.040;113.502;2023-07-13T07:55:43;1.73;;;0.68;;
75837;SDS011;64480;52.040;113.502;2023-07-13T07:58:49;2.40;;;1.00;;
75837;SDS011;64480;52.040;113.502;2023-07-13T08:01:56;5.13;;;2.75;;
75837;SDS011;64480;52.040;113.502;2023-07-13T08:08:08;1.80;;;0.60;;
75837;SDS011;64480;52.040;113.502;2023-07-13T08:11:11;1.15;;;0.55;;
75837;SDS011;64480;52.040;113.502;2023-07-13T08:14:18;6.40;;;0.68;;
75837;SDS011;64480;52.040;113.502;2023-07-13T08:17:21;3.58;;;0.60;;
75837;SDS011;64480;52.040;113.502;2023-07-13T08:20:25;2.88;;;0.63;;
75837;SDS011;64480;52.040;113.502;2023-07-13T08:23:28;1.88;;;0.38;;
75837;SDS011;64480;52.040;113.502;2023-07-13T08:26:34;2.47;;;0.82;;
75837;SDS011;64480;52.040;113.502;2023-07-13T08:29:38;1.90;;;0.65;;
75837;SDS011;64480;52.040;113.502;2023-07-13T08:32:42;2.50;;;0.50;;
75837;SDS011;64480;52.040;113.502;2023-07-13T08:35:46;5.68;;;0.90;;
75837;SDS011;64480;52.040;113.502;2023-07-13T08:38:53;2.75;;;0.70;;
75837;SDS011;64480;52.040;113.502;2023-07-13T08:41:58;3.72;;;0.90;;
75837;SDS011;64480;52.040;113.502;2023-07-13T08:45:50;3.42;;;1.10;;
75837;SDS011;64480;52.040;113.502;2023-07-13T08:48:56;3.15;;;0.75;;
75837;SDS011;64480;52.040;113.502;2023-07-13T08:52:08;4.70;;;2.10;;
75837;SDS011;64480;52.040;113.502;2023-07-13T08:55:20;3.30;;;1.13;;
75837;SDS011;64480;52.040;113.502;2023-07-13T08:58:31;5.07;;;1.10;;
75837;SDS011;64480;52.040;113.502;2023-07-13T09:01:46;6.97;;;1.20;;
75837;SDS011;64480;52.040;113.502;2023-07-13T09:08:32;3.10;;;1.02;;
75837;SDS011;64480;52.040;113.502;2023-07-13T09:11:50;3.55;;;1.02;;
75837;SDS011;64480;52.040;113.502;2023-07-13T09:18:41;1.60;;;0.50;;
75837;SDS011;64480;52.040;113.502;2023-07-13T09:21:53;4.32;;;0.75;;
75837;SDS011;64480;52.040;113.502;2023-07-13T09:25:04;4.78;;;0.70;;
75837;SDS011;64480;52.040;113.502;2023-07-13T09:28:18;1.48;;;0.68;;
75837;SDS011;64480;52.040;113.502;2023-07-13T09:31:39;3.00;;;0.40;;
75837;SDS011;64480;52.040;113.502;2023-07-13T09:34:53;1.17;;;0.40;;
75837;SDS011;64480;52.040;113.502;2023-07-13T09:37:57;2.53;;;0.38;;
75837;SDS011;64480;52.040;113.502;2023-07-13T09:44:14;1.48;;;0.73;;
75837;SDS011;64480;52.040;113.502;2023-07-13T09:47:24;1.85;;;0.52;;
75837;SDS011;64480;52.040;113.502;2023-07-13T09:50:32;1.67;;;0.47;;
75837;SDS011;64480;52.040;113.502;2023-07-13T09:53:35;5.80;;;0.70;;
75837;SDS011;64480;52.040;113.502;2023-07-13T09:56:39;2.20;;;0.65;;
75837;SDS011;64480;52.040;113.502;2023-07-13T09:59:43;1.10;;;0.30;;
75837;SDS011;64480;52.040;113.502;2023-07-13T10:02:57;1.70;;;0.60;;
75837;SDS011;64480;52.040;113.502;2023-07-13T10:06:21;3.45;;;0.95;;
75837;SDS011;64480;52.040;113.502;2023-07-13T10:09:25;1.85;;;0.80;;
75837;SDS011;64480;52.040;113.502;2023-07-13T10:12:29;2.60;;;0.52;;
75837;SDS011;64480;52.040;113.502;2023-07-13T10:15:38;1.73;;;0.52;;
75837;SDS011;64480;52.040;113.502;2023-07-13T10:18:46;4.72;;;0.55;;
75837;SDS011;64480;52.040;113.502;2023-07-13T10:21:54;3.70;;;0.60;;
75837;SDS011;64480;52.040;113.502;2023-07-13T10:25:27;3.40;;;1.30;;
75837;SDS011;64480;52.040;113.502;2023-07-13T10:28:39;2.97;;;0.88;;
75837;SDS011;64480;52.040;113.502;2023-07-13T10:34:48;1.80;;;0.90;;
75837;SDS011;64480;52.040;113.502;2023-07-13T10:41:11;2.72;;;0.98;;
75837;SDS011;64480;52.040;113.502;2023-07-13T10:44:21;2.75;;;0.85;;
75837;SDS011;64480;52.040;113.502;2023-07-13T10:47:31;3.15;;;0.80;;
75837;SDS011;64480;52.040;113.502;2023-07-13T10:50:35;4.85;;;1.02;;
75837;SDS011;64480;52.040;113.502;2023-07-13T10:53:43;5.85;;;1.25;;
75837;SDS011;64480;52.040;113.502;2023-07-13T10:56:52;5.05;;;1.13;;
75837;SDS011;64480;52.040;113.502;2023-07-13T11:00:14;5.97;;;1.17;;
75837;SDS011;64480;52.040;113.502;2023-07-13T11:03:20;5.95;;;1.30;;
75837;SDS011;64480;52.040;113.502;2023-07-13T11:09:38;8.70;;;1.95;;
75837;SDS011;64480;52.040;113.502;2023-07-13T11:19:16;2.13;;;0.95;;
75837;SDS011;64480;52.040;113.502;2023-07-13T11:22:19;1.10;;;0.60;;
75837;SDS011;64480;52.040;113.502;2023-07-13T11:25:27;1.65;;;0.63;;
75837;SDS011;64480;52.040;113.502;2023-07-13T11:28:35;2.58;;;1.13;;
75837;SDS011;64480;52.040;113.502;2023-07-13T11:31:40;5.18;;;0.73;;
75837;SDS011;64480;52.040;113.502;2023-07-13T11:34:46;1.45;;;0.70;;
75837;SDS011;64480;52.040;113.502;2023-07-13T11:37:50;2.72;;;0.70;;
75837;SDS011;64480;52.040;113.502;2023-07-13T11:40:54;1.40;;;0.70;;
75837;SDS011;64480;52.040;113.502;2023-07-13T11:44:05;2.05;;;0.90;;
75837;SDS011;64480;52.040;113.502;2023-07-13T11:47:17;1.45;;;0.70;;
75837;SDS011;64480;52.040;113.502;2023-07-13T11:50:24;4.55;;;1.38;;
75837;SDS011;64480;52.040;113.502;2023-07-13T11:53:28;2.15;;;0.73;;
75837;SDS011;64480;52.040;113.502;2023-07-13T11:56:33;2.08;;;0.75;;
75837;SDS011;64480;52.040;113.502;2023-07-13T11:59:38;2.85;;;1.52;;
75837;SDS011;64480;52.040;113.502;2023-07-13T12:09:08;4.10;;;0.95;;
75837;SDS011;64480;52.040;113.502;2023-07-13T12:12:22;7.38;;;0.90;;
75837;SDS011;64480;52.040;113.502;2023-07-13T12:15:37;30.55;;;12.88;;
75837;SDS011;64480;52.040;113.502;2023-07-13T12:18:45;5.90;;;2.55;;
75837;SDS011;64480;52.040;113.502;2023-07-13T12:21:49;13.57;;;3.63;;
75837;SDS011;64480;52.040;113.502;2023-07-13T12:24:55;7.10;;;3.83;;
75837;SDS011;64480;52.040;113.502;2023-07-13T12:27:59;11.25;;;3.70;;
75837;SDS011;64480;52.040;113.502;2023-07-13T12:31:25;10.18;;;3.60;;
75837;SDS011;64480;52.040;113.502;2023-07-13T12:34:32;8.68;;;3.40;;
75837;SDS011;64480;52.040;113.502;2023-07-13T12:37:58;5.50;;;2.90;;
75837;SDS011;64480;52.040;113.502;2023-07-13T12:41:03;10.70;;;3.33;;
75837;SDS011;64480;52.040;113.502;2023-07-13T12:44:11;9.55;;;3.08;;
75837;SDS011;64480;52.040;113.502;2023-07-13T12:47:19;7.60;;;2.30;;
75837;SDS011;64480;52.040;113.502;2023-07-13T12:50:24;14.35;;;6.45;;
75837;SDS011;64480;52.040;113.502;2023-07-13T12:53:34;8.40;;;3.47;;
75837;SDS011;64480;52.040;113.502;2023-07-13T12:56:44;6.85;;;2.60;;
75837;SDS011;64480;52.040;113.502;2023-07-13T12:59:52;9.02;;;2.55;;
75837;SDS011;64480;52.040;113.502;2023-07-13T13:02:57;13.35;;;4.05;;
75837;SDS011;64480;52.040;113.502;2023-07-13T13:06:26;12.55;;;4.25;;
75837;SDS011;64480;52.040;113.502;2023-07-13T13:09:31;16.23;;;5.07;;
75837;SDS011;64480;52.040;113.502;2023-07-13T13:12:35;16.50;;;4.75;;
75837;SDS011;64480;52.040;113.502;2023-07-13T13:15:38;16.38;;;5.28;;
75837;SDS011;64480;52.040;113.502;2023-07-13T13:18:42;13.27;;;4.18;;
75837;SDS011;64480;52.040;113.502;2023-07-13T13:21:46;13.00;;;4.38;;
75837;SDS011;64480;52.040;113.502;2023-07-13T13:24:49;12.98;;;4.35;;
75837;SDS011;64480;52.040;113.502;2023-07-13T13:27:52;16.13;;;4.93;;
75837;SDS011;64480;52.040;113.502;2023-07-13T13:30:56;12.40;;;5.90;;
75837;SDS011;64480;52.040;113.502;2023-07-13T13:34:04;8.98;;;2.67;;
75837;SDS011;64480;52.040;113.502;2023-07-13T13:40:25;6.57;;;2.13;;
75837;SDS011;64480;52.040;113.502;2023-07-13T13:43:29;7.43;;;2.08;;
75837;SDS011;64480;52.040;113.502;2023-07-13T13:46:33;6.57;;;1.63;;
75837;SDS011;64480;52.040;113.502;2023-07-13T13:49:36;4.03;;;1.60;;
75837;SDS011;64480;52.040;113.502;2023-07-13T13:52:42;10.70;;;1.90;;
75837;SDS011;64480;52.040;113.502;2023-07-13T13:55:46;8.60;;;1.63;;
75837;SDS011;64480;52.040;113.502;2023-07-13T13:58:50;5.25;;;1.55;;
75837;SDS011;64480;52.040;113.502;2023-07-13T14:01:54;6.55;;;1.80;;
75837;SDS011;64480;52.040;113.502;2023-07-13T14:04:59;5.60;;;1.20;;
75837;SDS011;64480;52.040;113.502;2023-07-13T14:08:07;4.53;;;1.33;;
75837;SDS011;64480;52.040;113.502;2023-07-13T14:11:16;6.18;;;1.30;;
75837;SDS011;64480;52.040;113.502;2023-07-13T14:17:26;5.13;;;1.23;;
75837;SDS011;64480;52.040;113.502;2023-07-13T14:20:31;4.68;;;1.33;;
75837;SDS011;64480;52.040;113.502;2023-07-13T14:23:34;5.32;;;1.00;;
75837;SDS011;64480;52.040;113.502;2023-07-13T14:26:41;5.10;;;1.10;;
75837;SDS011;64480;52.040;113.502;2023-07-13T14:29:45;2.67;;;1.00;;
75837;SDS011;64480;52.040;113.502;2023-07-13T14:32:49;5.72;;;1.10;;
75837;SDS011;64480;52.040;113.502;2023-07-13T14:35:53;3.47;;;1.55;;
75837;SDS011;64480;52.040;113.502;2023-07-13T14:38:57;4.22;;;1.27;;
75837;SDS011;64480;52.040;113.502;2023-07-13T14:42:01;6.43;;;1.33;;
75837;SDS011;64480;52.040;113.502;2023-07-13T14:45:12;5.13;;;1.27;;
75837;SDS011;64480;52.040;113.502;2023-07-13T14:48:20;2.85;;;1.10;;
75837;SDS011;64480;52.040;113.502;2023-07-13T14:51:26;6.05;;;1.30;;
75837;SDS011;64480;52.040;113.502;2023-07-13T14:54:29;6.05;;;1.23;;
75837;SDS011;64480;52.040;113.502;2023-07-13T14:57:33;4.40;;;1.27;;
75837;SDS011;64480;52.040;113.502;2023-07-13T15:00:37;11.02;;;1.50;;
75837;SDS011;64480;52.040;113.502;2023-07-13T15:03:41;7.43;;;1.67;;
75837;SDS011;64480;52.040;113.502;2023-07-13T15:06:55;4.65;;;1.27;;
75837;SDS011;64480;52.040;113.502;2023-07-13T15:10:01;4.78;;;1.85;;
75837;SDS011;64480;52.040;113.502;2023-07-13T15:13:17;4.85;;;1.30;;
75837;SDS011;64480;52.040;113.502;2023-07-13T15:16:23;2.85;;;1.27;;
75837;SDS011;64480;52.040;113.502;2023-07-13T15:19:28;3.25;;;1.42;;
75837;SDS011;64480;52.040;113.502;2023-07-13T15:22:32;4.05;;;1.30;;
75837;SDS011;64480;52.040;113.502;2023-07-13T15:25:35;2.42;;;1.02;;
75837;SDS011;64480;52.040;113.502;2023-07-13T15:28:38;6.85;;;1.40;;
75837;SDS011;64480;52.040;113.502;2023-07-13T15:31:44;3.92;;;1.20;;
75837;SDS011;64480;52.040;113.502;2023-07-13T15:34:48;4.28;;;1.10;;
75837;SDS011;64480;52.040;113.502;2023-07-13T15:37:52;2.85;;;1.05;;
75837;SDS011;64480;52.040;113.502;2023-07-13T15:40:56;5.03;;;1.17;;
75837;SDS011;64480;52.040;113.502;2023-07-13T15:44:00;4.05;;;1.40;;
75837;SDS011;64480;52.040;113.502;2023-07-13T15:47:11;1.83;;;0.82;;
75837;SDS011;64480;52.040;113.502;2023-07-13T15:50:17;1.63;;;0.90;;
75837;SDS011;64480;52.040;113.502;2023-07-13T15:53:23;2.40;;;1.13;;
75837;SDS011;64480;52.040;113.502;2023-07-13T15:56:29;2.92;;;1.52;;
75837;SDS011;64480;52.040;113.502;2023-07-13T15:59:37;4.90;;;1.20;;
75837;SDS011;64480;52.040;113.502;2023-07-13T16:02:41;3.83;;;1.20;;
75837;SDS011;64480;52.040;113.502;2023-07-13T16:05:45;2.53;;;1.30;;
75837;SDS011;64480;52.040;113.502;2023-07-13T16:08:49;6.38;;;1.73;;
75837;SDS011;64480;52.040;113.502;2023-07-13T16:11:53;7.05;;;1.40;;
75837;SDS011;64480;52.040;113.502;2023-07-13T16:15:00;5.65;;;1.42;;
75837;SDS011;64480;52.040;113.502;2023-07-13T16:18:06;6.35;;;1.60;;
75837;SDS011;64480;52.040;113.502;2023-07-13T16:21:11;4.85;;;1.55;;
75837;SDS011;64480;52.040;113.502;2023-07-13T16:24:19;4.57;;;1.60;;
75837;SDS011;64480;52.040;113.502;2023-07-13T16:27:24;7.57;;;2.10;;
75837;SDS011;64480;52.040;113.502;2023-07-13T16:30:29;7.90;;;1.95;;
75837;SDS011;64480;52.040;113.502;2023-07-13T16:33:33;8.73;;;1.60;;
75837;SDS011;64480;52.040;113.502;2023-07-13T16:36:37;5.95;;;2.05;;
75837;SDS011;64480;52.040;113.502;2023-07-13T16:39:42;21.50;;;19.45;;
75837;SDS011;64480;52.040;113.502;2023-07-13T16:42:50;16.02;;;6.55;;
75837;SDS011;64480;52.040;113.502;2023-07-13T16:45:57;12.57;;;7.15;;
75837;SDS011;64480;52.040;113.502;2023-07-13T16:49:25;9.18;;;6.43;;
75837;SDS011;64480;52.040;113.502;2023-07-13T16:52:31;11.00;;;6.43;;
75837;SDS011;64480;52.040;113.502;2023-07-13T16:55:34;12.80;;;5.75;;
75837;SDS011;64480;52.040;113.502;2023-07-13T16:58:38;13.13;;;5.43;;
75837;SDS011;64480;52.040;113.502;2023-07-13T17:01:41;15.70;;;4.80;;
75837;SDS011;64480;52.040;113.502;2023-07-13T17:04:45;8.65;;;4.40;;
75837;SDS011;64480;52.040;113.502;2023-07-13T17:07:49;8.13;;;3.45;;
75837;SDS011;64480;52.040;113.502;2023-07-13T17:10:53;8.80;;;3.13;;
75837;SDS011;64480;52.040;113.502;2023-07-13T17:13:59;5.97;;;2.30;;
75837;SDS011;64480;52.040;113.502;2023-07-13T17:17:04;6.45;;;2.70;;
75837;SDS011;64480;52.040;113.502;2023-07-13T17:23:23;8.82;;;2.58;;
75837;SDS011;64480;52.040;113.502;2023-07-13T17:26:28;5.50;;;2.08;;
75837;SDS011;64480;52.040;113.502;2023-07-13T17:29:32;6.35;;;2.35;;
75837;SDS011;64480;52.040;113.502;2023-07-13T17:32:35;4.75;;;2.20;;
75837;SDS011;64480;52.040;113.502;2023-07-13T17:35:39;5.45;;;2.28;;
75837;SDS011;64480;52.040;113.502;2023-07-13T17:38:44;5.63;;;2.55;;
75837;SDS011;64480;52.040;113.502;2023-07-13T17:41:53;9.75;;;2.67;;
75837;SDS011;64480;52.040;113.502;2023-07-13T17:44:57;8.63;;;3.47;;
75837;SDS011;64480;52.040;113.502;2023-07-13T17:48:00;8.73;;;3.25;;
75837;SDS011;64480;52.040;113.502;2023-07-13T17:51:12;6.05;;;2.40;;
75837;SDS011;64480;52.040;113.502;2023-07-13T17:54:18;6.45;;;2.80;;
75837;SDS011;64480;52.040;113.502;2023-07-13T17:57:24;10.30;;;2.72;;
75837;SDS011;64480;52.040;113.502;2023-07-13T18:00:30;10.45;;;3.28;;
75837;SDS011;64480;52.040;113.502;2023-07-13T18:03:39;7.82;;;3.40;;
75837;SDS011;64480;52.040;113.502;2023-07-13T18:06:47;9.45;;;3.25;;
75837;SDS011;64480;52.040;113.502;2023-07-13T18:09:58;9.68;;;4.05;;
75837;SDS011;64480;52.040;113.502;2023-07-13T18:13:01;12.05;;;3.67;;
75837;SDS011;64480;52.040;113.502;2023-07-13T18:16:08;11.15;;;3.88;;
75837;SDS011;64480;52.040;113.502;2023-07-13T18:22:39;9.73;;;3.42;;
75837;SDS011;64480;52.040;113.502;2023-07-13T18:25:43;7.38;;;3.45;;
75837;SDS011;64480;52.040;113.502;2023-07-13T18:28:50;9.25;;;3.33;;
75837;SDS011;64480;52.040;113.502;2023-07-13T18:31:55;10.55;;;3.25;;
75837;SDS011;64480;52.040;113.502;2023-07-13T18:35:00;7.65;;;2.70;;
75837;SDS011;64480;52.040;113.502;2023-07-13T18:38:04;6.93;;;3.28;;
75837;SDS011;64480;52.040;113.502;2023-07-13T18:41:14;7.63;;;3.13;;
75837;SDS011;64480;52.040;113.502;2023-07-13T18:44:22;6.88;;;3.30;;
75837;SDS011;64480;52.040;113.502;2023-07-13T18:47:26;8.27;;;3.20;;
75837;SDS011;64480;52.040;113.502;2023-07-13T18:50:36;6.90;;;3.05;;
75837;SDS011;64480;52.040;113.502;2023-07-13T18:53:42;7.68;;;2.60;;
75837;SDS011;64480;52.040;113.502;2023-07-13T18:56:46;9.45;;;3.08;;
75837;SDS011;64480;52.040;113.502;2023-07-13T18:59:50;5.75;;;2.80;;